Home > Products > Valid Products > TAF

000
FTUS44 KAMA 311100
TAFAMA
TAF
KAMA 311120Z 3112/0112 05006KT P6SM SKC
     FM311900 12010KT P6SM SKC
     FM010600 17013G18KT P6SM SCT250=



000
FTUS44 KAMA 311100
TAFGUY
TAF
KGUY 311120Z 3112/0112 02005KT P6SM SKC
     FM311900 13010KT P6SM SKC
     FM010600 17013G20KT P6SM SCT250=



000
FTUS44 KAMA 311100
TAFDHT
TAF
KDHT 311120Z 3112/0112 04005KT P6SM SKC
     FM311800 16010KT P6SM SKC
     FM010600 19013G18KT P6SM SCT250=



000
FTUS44 KAMA 310500
TAFAMA
TAF
KAMA 310520Z 3106/0106 03006KT P6SM SKC
     FM311900 12012KT P6SM SKC=



000
FTUS44 KAMA 310500
TAFDHT
TAF
KDHT 310520Z 3106/0106 04005KT P6SM SKC
     FM311800 16015KT P6SM SKC=



000
FTUS44 KAMA 310500
TAFGUY
TAF
KGUY 310520Z 3106/0106 02005KT P6SM SKC
     FM311900 13015KT P6SM SKC=



000
FTUS44 KAMA 302300
TAFGUY
TAF
KGUY 302320Z 3100/3124 03007KT P6SM SKC
     FM311800 13014KT P6SM SCT250=



000
FTUS44 KAMA 302300
TAFDHT
TAF
KDHT 302320Z 3100/3124 06007KT P6SM SKC
     FM311800 14015KT P6SM SCT250=



000
FTUS44 KAMA 302300
TAFAMA
TAF
KAMA 302320Z 3100/3124 05009KT P6SM SKC
     FM311800 12012KT P6SM FEW250=



000
FTUS44 KAMA 301700
TAFDHT
TAF
KDHT 301720Z 3018/3118 03015G25KT P6SM SKC
     FM302300 04007KT P6SM SKC=



000
FTUS44 KAMA 301700
TAFAMA
TAF
KAMA 301720Z 3018/3118 02015G25KT P6SM SKC
     FM310000 04008KT P6SM SKC=



000
FTUS44 KAMA 301700
TAFGUY
TAF
KGUY 301720Z 3018/3118 04014G22KT P6SM SKC
     FM302300 03007KT P6SM SKC=



000
FTUS44 KAMA 301100
TAFDHT
TAF
KDHT 301120Z 3012/3112 34017KT P6SM SKC
     FM301500 03020G30KT P6SM SCT250
     FM310000 04007KT P6SM SKC=



000
FTUS44 KAMA 301100
TAFGUY
TAF
KGUY 301120Z 3012/3112 33015KT P6SM SKC
     FM301500 02019G25KT P6SM SKC
     FM310000 03007KT P6SM SKC=



000
FTUS44 KAMA 301100
TAFAMA
TAF
KAMA 301120Z 3012/3112 32015KT P6SM SKC
     FM301500 02019G27KT P6SM SCT250
     FM310000 03008KT P6SM SKC=



000
FTUS44 KAMA 300500
TAFGUY
TAF
KGUY 300520Z 3006/3106 24006KT P6SM SKC
     FM300930 33015KT P6SM SKC
     FM301500 36019G27KT P6SM SKC
     FM302200 03007KT P6SM SKC=



000
FTUS44 KAMA 300500
TAFDHT
TAF
KDHT 300520Z 3006/3106 22007KT P6SM SKC
     FM300930 34017KT P6SM SKC
     FM301500 03020G30KT P6SM SCT250
     FM302100 04007KT P6SM SKC=



000
FTUS44 KAMA 300500
TAFAMA
TAF
KAMA 300520Z 3006/3106 19009KT P6SM SKC
     FM301200 32015KT P6SM SKC
     FM301500 02019G27KT P6SM SCT250
     FM310000 03008KT P6SM SKC=



000
FTUS44 KAMA 292300
TAFGUY
TAF
KGUY 292320Z 3000/3024 24006KT P6SM SKC
     FM300900 36012G20KT P6SM SCT250=



000
FTUS44 KAMA 292300
TAFAMA
TAF
KAMA 292320Z 3000/3024 19009KT P6SM SKC
     FM301200 34012G20KT P6SM SCT250=



000
FTUS44 KAMA 292300
TAFDHT
TAF
KDHT 292320Z 3000/3024 20009KT P6SM SKC
     FM301000 35014G22KT P6SM SCT250=



000
FTUS44 KAMA 291700
TAFAMA
TAF
KAMA 291738Z 2918/3018 19014KT P6SM SKC
     FM300100 18008KT P6SM FEW015
     FM301300 33012G20KT P6SM FEW200=



000
FTUS44 KAMA 291700
TAFGUY
TAF
KGUY 291738Z 2918/3018 21016KT P6SM SKC
     FM300100 24006KT P6SM FEW015
     FM300900 36012G20KT P6SM FEW200=



000
FTUS44 KAMA 291700
TAFDHT
TAF
KDHT 291738Z 2918/3018 20016KT P6SM SKC
     FM300100 27005KT P6SM FEW015
     FM301000 35014G22KT P6SM FEW200=



000
FTUS44 KAMA 291200 RRA
TAFGUY
TAF
KGUY 291217Z 2912/3012 18010KT P6SM SKC
     FM300800 33010KT P6SM FEW250=



000
FTUS44 KAMA 291200 RRA
TAFAMA
TAF
KAMA 291217Z 2912/3012 18012KT P6SM SKC
     FM300100 18008KT P6SM FEW250=



000
FTUS44 KAMA 291200 RRA
TAFDHT
TAF
KDHT 291217Z 2912/3012 18010KT P6SM SKC
     FM300800 33010KT P6SM FEW250=



000
FTUS44 KAMA 290500
TAFAMA
TAF
KAMA 290520Z 2906/3006 16006KT P6SM SKC
     FM291600 19015KT P6SM SKC=



000
FTUS44 KAMA 290500
TAFDHT
TAF
KDHT 290520Z 2906/3006 19008KT P6SM SKC
     FM291600 20015KT P6SM SKC=



000
FTUS44 KAMA 290500
TAFGUY
TAF
KGUY 290520Z 2906/3006 18008KT P6SM SKC
     FM291600 20013KT P6SM SKC=



000
FTUS44 KAMA 282300
TAFGUY
TAF
KGUY 282322Z 2900/2924 18008KT P6SM SKC
     FM291600 20013KT P6SM SKC=



000
FTUS44 KAMA 282300
TAFDHT
TAF
KDHT 282322Z 2900/2924 18008KT P6SM SKC
     FM291600 20013KT P6SM SKC=



000
FTUS44 KAMA 282300
TAFAMA
TAF
KAMA 282322Z 2900/2924 16006KT P6SM FEW200
     FM291600 19012KT P6SM SKC=



000
FTUS44 KAMA 281700
TAFAMA
TAF
KAMA 281720Z 2818/2918 VRB05KT P6SM BKN200
     FM290000 16008KT P6SM SCT200=



000
FTUS44 KAMA 281700
TAFDHT
TAF
KDHT 281720Z 2818/2918 20010KT P6SM BKN200
     FM290000 18008KT P6SM SCT200=



000
FTUS44 KAMA 281700
TAFGUY
TAF
KGUY 281720Z 2818/2918 VRB05KT P6SM BKN200
     FM290000 18008KT P6SM SCT200=



    US Dept of Commerce
    National Oceanic and Atmospheric Administration
    National Weather Service
    1325 East West Highway
    Silver Spring, MD 20910
    Page Author: NWS Internet Services Team
Disclaimer
Information Quality
Credits
Glossary
Privacy Policy
Freedom of Information Act (FOIA)
About Us
Career Opportunities